KTEX Airport Information

Runway Information
Runway 09 Length 6870 ft width 100 ft
Elevation 9061 ft Threshold ft Heading 105
Runway 27 Length 6870 ft Width 100 ft
Elevation 9078 ft Threshold ft Heading 285
Airport Frequencies
Type CNTR Name DENVER CNT Frequency 125.35 MHZ
Type FSS Name DENVER RDO Frequency 122.15 MHZ
Type UNIC Name CTAF/UNICO Frequency 123 MHZ
Airport Navaids
Airport Weather Information & NOTAM
ADDS - METARS form results

(1626 UTC 14 August 2022)
Data provider http://aviationweather.gov/metar/data/
 
METAR text: KTEX 141615Z AUTO 00000KT 10SM CLR 20/07 A3050 RMK AO2
Conditions at: KTEX (TELLURIDE REGION, CO, US) observed 1615 UTC 14 August 2022
Temperature: 20.0°C (68°F)
Dewpoint: 7.0°C (45°F) [RH = 43%]
Pressure (altimeter): 30.50 inches Hg (1032.9 mb)
Winds: calm
Visibility: 10 or more miles (16+ km)
Ceiling: at least 12,000 feet AGL
Clouds: sky clear below 12,000 feet AGL
Weather: automated observation with no human augmentation;
there may or may not be significant weather present at this time

METAR text: KTEX 141555Z AUTO 00000KT 10SM CLR 18/10 A3050 RMK AO2
Conditions at: KTEX (TELLURIDE REGION, CO, US) observed 1555 UTC 14 August 2022
Temperature: 18.0°C (64°F)
Dewpoint: 10.0°C (50°F) [RH = 59%]
Pressure (altimeter): 30.50 inches Hg (1032.9 mb)
Winds: calm
Visibility: 10 or more miles (16+ km)
Ceiling: at least 12,000 feet AGL
Clouds: sky clear below 12,000 feet AGL
Weather: automated observation with no human augmentation;
there may or may not be significant weather present at this time

METAR text: KTEX 141535Z AUTO 00000KT 10SM CLR 17/10 A3051 RMK AO2
Conditions at: KTEX (TELLURIDE REGION, CO, US) observed 1535 UTC 14 August 2022
Temperature: 17.0°C (63°F)
Dewpoint: 10.0°C (50°F) [RH = 63%]
Pressure (altimeter): 30.51 inches Hg (1033.3 mb)
Winds: calm
Visibility: 10 or more miles (16+ km)
Ceiling: at least 12,000 feet AGL
Clouds: sky clear below 12,000 feet AGL
Weather: automated observation with no human augmentation;
there may or may not be significant weather present at this time

Forecast for: KTEX (TELLURIDE REGION, CO, US)
Text: KTEX 141130Z 1412/1512 VRB03KT P6SM FEW050 FEW250
Forecast period: 1200 to 1800 UTC 14 August 2022
Forecast type: FROM: standard forecast or significant change
Winds: variable direction winds at 3 MPH (3 knots; 1.5 m/s)
Visibility: 6 or more miles (10+ km)
Ceiling: at least 12,000 feet AGL
Clouds: few clouds at 5000 feet AGL
few clouds at 25000 feet AGL
Weather: no significant weather forecast for this period
Text: FM141800 23007KT P6SM VCTS SCT060CB BKN100
Forecast period: 1800 to 2100 UTC 14 August 2022
Forecast type: FROM: standard forecast or significant change
Winds: from the SW (230 degrees) at 8 MPH (7 knots; 3.6 m/s)
Visibility: 6 or more miles (10+ km)
Ceiling: 10000 feet AGL
Clouds: scattered clouds at 6000 feet AGL
broken clouds at 10000 feet AGL
Weather: VCTS  (thunderstorm in vicinity)
Text: FM142100 27008G15KT 6SM -SHRA BR VCTS SCT070CB BKN090
Forecast period: 2100 UTC 14 August 2022 to 0100 UTC 15 August 2022
Forecast type: FROM: standard forecast or significant change
Winds: from the W (270 degrees) at 9 MPH (8 knots; 4.1 m/s)
gusting to 17 MPH (15 knots; 7.7 m/s)
Visibility: 6 miles (10 km)
Ceiling: 9000 feet AGL
Clouds: scattered clouds at 7000 feet AGL
broken clouds at 9000 feet AGL
Weather: -SHRA BR VCTS  (light rain showers, mist, thunderstorm in vicinity)
Text: FM150100 23005KT P6SM VCTS SCT070CB BKN100
Forecast period: 0100 to 0600 UTC 15 August 2022
Forecast type: FROM: standard forecast or significant change
Winds: from the SW (230 degrees) at 6 MPH (5 knots; 2.6 m/s)
Visibility: 6 or more miles (10+ km)
Ceiling: 10000 feet AGL
Clouds: scattered clouds at 7000 feet AGL
broken clouds at 10000 feet AGL
Weather: VCTS  (thunderstorm in vicinity)
Text: FM150600 VRB03KT P6SM FEW050 SCT100
Forecast period: 0600 to 1200 UTC 15 August 2022
Forecast type: FROM: standard forecast or significant change
Winds: variable direction winds at 3 MPH (3 knots; 1.5 m/s)
Visibility: 6 or more miles (10+ km)
Ceiling: at least 12,000 feet AGL
Clouds: few clouds at 5000 feet AGL
scattered clouds at 10000 feet AGL
Weather: no significant weather forecast for this period